METAR Data
IDs: Format: Raw Decoded Include TAF

Data at: 0247 UTC 20 Mar 2019

VTUK 200200Z 29004KT 260V320 5000 BR NSC 29/22 Q1012 NOSIG
VTUK 200100Z 23003KT 170V340 5000 BR NSC 27/22 Q1012 NOSIG
VTUK 200000Z 00000KT 5000 BR FEW030 SCT100 24/22 Q1011 BECMG FM0020 TL0040 3000 BR
VTUK 192300Z VRB02KT 6000 NSC 24/22 Q1010 BECMG FM2310 TL2330 5000 BR
VTUK 192200Z VRB01KT 7000 FEW030 24/22 Q1009 NOSIG
VTUK 192100Z VRB02KT 7000 FEW030 SCT100 25/21 Q1009 NOSIG
VTUK 192000Z VRB01KT 7000 FEW030 SCT100 24/21 Q1008 NOSIG
VTUK 191900Z 32003KT 290V350 7000 FEW025 25/22 Q1009 NOSIG
VTUK 191800Z VRB02KT 7000 FEW025 26/22 Q1009 NOSIG
VTUK 191700Z VRB02KT 7000 FEW025 SCT080 26/21 Q1010 NOSIG
VTUK 191600Z 09003KT 060V140 7000 FEW025 SCT080 28/19 Q1010 NOSIG
VTUK 191500Z 30010KT 260V330 8000 VCTS FEW018CB SCT025 SCT080 27/18 Q1010 NOSIG
VTUK 191400Z 27005KT 7000 -TSRA FEW018CB SCT025 SCT080 32/18 Q1009 TEMPO TL1440 5000 TSRA
VTUK 191300Z 23004KT 180V260 8000 SCT030 SCT100 32/19 Q1008 NOSIG
VTUK 191200Z 21003KT 160V230 8000 FEW018CB SCT030 SCT100 32/18 Q1007 TEMPO FM1310 TL1340 5000 TSRA
VTUK 191100Z 18003KT 150V220 8000 FEW030 35/18 Q1007 NOSIG
VTUK 191000Z 19003KT 100V230 8000 FEW030 37/18 Q1006 NOSIG
VTUK 190900Z 20005KT 140V270 8000 SCT030 SCT100 38/18 Q1006 NOSIG
VTUK 190800Z VRB05KT 8000 SCT030 SCT100 38/19 Q1007 NOSIG
VTUK 190700Z VRB05KT 8000 SCT030 38/19 Q1008 NOSIG
VTUK 190600Z 14004KT 060V230 7000 FEW030 37/20 Q1009 NOSIG
VTUK 190500Z VRB03KT 7000 FEW030 37/21 Q1011 NOSIG
VTUK 190400Z VRB03KT 6000 NSC 37/19 Q1012 NOSIG
VTUK 190300Z VRB02KT 6000 NSC 34/20 Q1013 NOSIG
VTUK 190200Z 25004KT 170V300 5000 HZ FEW035 30/21 Q1012 NOSIG
VTUK 190100Z 21003KT 140V280 5000 BR FEW035 28/21 Q1012 NOSIG
VTUK 190000Z 20002KT 4000 BR FEW035 24/20 Q1011 NOSIG
VTUK 182300Z 22003KT 6000 NSC 24/20 Q1010 NOSIG
VTUK 182200Z 28004KT 7000 NSC 25/20 Q1009 NOSIG
VTUK 182100Z VRB02KT 7000 NSC 25/20 Q1008 NOSIG
VTUK 182000Z VRB01KT 7000 NSC 25/19 Q1009 NOSIG
VTUK 181900Z 24001KT 7000 FEW035 SCT100 25/19 Q1009 NOSIG
VTUK 181800Z 27004KT 220V290 7000 NSC 27/19 Q1010 NOSIG
VTUK 181700Z 29004KT 260V330 7000 FEW035 SCT100 28/18 Q1011 NOSIG
VTUK 181600Z 28005KT 7000 FEW035 SCT100 28/19 Q1011 NOSIG
VTUK 181500Z 00000KT 8000 NSC 27/19 Q1010 NOSIG

VTUD 200200Z 31003KT 260V030 6000 FEW030 29/19 Q1012 NOSIG
VTUD 200100Z 27003KT 230V300 5000 BR FEW030 27/20 Q1012 NOSIG
VTUD 200000Z 00000KT 3500 BR NSC 25/21 Q1011 NOSIG
VTUD 192300Z 29005KT 3500 BR NSC 24/21 Q1010 NOSIG
VTUD 192200Z 31003KT 5000 BR FEW020 25/21 Q1009 NOSIG
VTUD 191600Z 01005KT 330V060 5000 BR FEW020 29/22 Q1011 NOSIG
VTUD 191500Z VRB04KT 5000 BR FEW020TCU SCT100 30/22 Q1010 NOSIG
VTUD 191400Z 03003KT 330V090 6000 VCTS FEW020CB SCT100 31/22 Q1010 NOSIG
VTUD 191300Z 01004KT 340V040 6000 NSC 32/21 Q1008 NOSIG
VTUD 191200Z VRB02KT 6000 FEW020 33/19 Q1007 NOSIG
VTUD 191100Z 16003KT 7000 FEW020TCU 35/19 Q1007 NOSIG
VTUD 191000Z VRB02KT 7000 FEW040 36/19 Q1006 NOSIG
VTUD 190900Z 13007KT 7000 FEW040 36/20 Q1006 NOSIG
VTUD 190800Z VRB05KT 7000 FEW040 36/20 Q1007 NOSIG
VTUD 190700Z VRB04KT 7000 FEW040 35/20 Q1008 NOSIG
VTUD 190600Z VRB05KT 7000 FEW040 35/20 Q1010 NOSIG
VTUD 190500Z VRB02KT 6000 NSC 34/20 Q1011 NOSIG
VTUD 190400Z VRB02KT 6000 NSC 33/21 Q1012 NOSIG
VTUD 190300Z 01004KT 320V040 5000 HZ FEW020 31/20 Q1013 NOSIG
VTUD 190200Z 00000KT 4000 HZ FEW020 29/21 Q1013 NOSIG
VTUD 190100Z VRB02KT 3500 BR FEW020 SCT100 27/22 Q1012 NOSIG
VTUD 190000Z VRB02KT 3000 BR FEW020 26/22 Q1011 NOSIG
VTUD 182300Z 00000KT 4000 BR NSC 25/21 Q1010 NOSIG
VTUD 182200Z 00000KT 5000 HZ NSC 25/21 Q1009 NOSIG
VTUD 181500Z VRB02KT 5000 BR NSC 29/21 Q1011 NOSIG

VTUL 200200Z VRB02KT 8000 SCT030 25/21 Q1013 NOSIG
VTUL 200100Z VRB01KT 8000 FEW030 23/21 Q1012 NOSIG
VTUL 200000Z VRB01KT 6000 SCT030 22/20 Q1011 NOSIG
VTUL 192300Z 00000KT 5000 BR SCT030 21/20 Q1011 NOSIG
VTUL 191200Z 01005KT 9999 FEW030 31/20 Q1008 NOSIG
VTUL 191100Z 22004KT 9999 FEW030 34/19 Q1007 NOSIG
VTUL 191000Z 20006KT 9999 FEW030 36/18 Q1007 NOSIG
VTUL 190900Z 24007KT 200V270 9999 FEW030 37/18 Q1006 NOSIG
VTUL 190800Z 25006KT 210V300 9999 FEW030 37/18 Q1007 NOSIG
VTUL 190700Z 18007KT 130V220 9999 SCT030 37/18 Q1008 NOSIG
VTUL 190600Z 10007KT 060V170 9999 SCT030 36/19 Q1009 NOSIG
VTUL 190500Z 11004KT 050V210 9999 SCT030 34/22 Q1011 NOSIG
VTUL 190300Z VRB02KT 8000 FEW030 31/20 Q1013 NOSIG
VTUL 190200Z VRB02KT 6000 FEW030 28/22 Q1013 NOSIG
VTUL 190100Z 00000KT 5000 BR FEW030 25/22 Q1012 NOSIG
VTUL 190000Z 24003KT 210V280 3000 BR FEW030 SCT080 22/21 Q1012 NOSIG
VTUL 182300Z 00000KT 5000 BR FEW030 SCT080 22/21 Q1011 NOSIG

VTUI 200200Z VRB02KT 4000 BR FEW010 29/22 Q1012 NOSIG
VTUI 200100Z 15004KT 3500 BR NSC 28/22 Q1011 NOSIG
VTUI 200000Z 00000KT 3500 BR NSC 25/23 Q1010 BECMG TL0100 4000 BR
VTUI 192300Z 21003KT 4000 BR NSC 25/22 Q1009 NOSIG
VTUI 191400Z 00000KT 7000 NSC 28/23 Q1009 NOSIG
VTUI 191300Z 35004KT 7000 NSC 29/22 Q1008 NOSIG
VTUI 191200Z 00000KT 7000 NSC 30/23 Q1008 NOSIG
VTUI 191100Z VRB01KT 7000 NSC 33/21 Q1007 NOSIG
VTUI 191000Z VRB02KT 8000 FEW045 35/22 Q1006 NOSIG
VTUI 190900Z 02003KT 340V050 8000 FEW045 36/21 Q1006 NOSIG
VTUI 190800Z 03005KT 330V050 7000 SCT045 35/20 Q1007 NOSIG
VTUI 190700Z 03005KT 350V080 7000 FEW045 35/21 Q1008 NOSIG
VTUI 190600Z 10008KT 070V140 7000 FEW045 36/22 Q1009 NOSIG
VTUI 190500Z 10006KT 070V140 6000 FEW045 34/22 Q1011 NOSIG
VTUI 190400Z 08005KT 040V130 6000 NSC 32/22 Q1012 NOSIG
VTUI 190300Z 12008KT 6000 NSC 30/22 Q1013 NOSIG
VTUI 190200Z 14007KT 6000 NSC 28/22 Q1013 NOSIG
VTUI 190100Z 12006KT 6000 NSC 27/22 Q1012 NOSIG
VTUI 190000Z 12006KT 100V160 6000 NSC 25/21 Q1011 NOSIG
VTUI 182300Z 14005KT 4000 BR NSC 25/21 Q1010 NOSIG
VTUI 181600Z 00000KT 6000 NSC 27/24 Q1010 NOSIG
VTUI 181500Z 00000KT 6000 NSC 27/23 Q1010 NOSIG

VTUW 200200Z 14009KT 7000 NSC 30/22 Q1012 NOSIG
VTUW 200100Z 13007KT 6000 NSC 28/22 Q1011 NOSIG
VTUW 191300Z 00000KT 7000 NSC 30/21 Q1009 NOSIG
VTUW 191200Z 35002KT 7000 NSC 30/21 Q1008 NOSIG
VTUW 191100Z 12004KT 6000 FEW045 33/21 Q1007 NOSIG
VTUW 191000Z 16006KT 7000 FEW045 35/21 Q1007 NOSIG
VTUW 190900Z 16004KT 140V210 7000 FEW045 35/21 Q1007 NOSIG
VTUW 190800Z VRB02KT 8000 FEW045 37/20 Q1007 NOSIG
VTUW 190700Z VRB04KT 7000 NSC 36/20 Q1008 NOSIG
VTUW 190600Z 16004KT 100V230 7000 NSC 35/21 Q1010 NOSIG
VTUW 190500Z VRB05KT 7000 NSC 33/21 Q1012 NOSIG
VTUW 190400Z 16007KT 130V200 7000 NSC 31/20 Q1013 NOSIG
VTUW 190300Z 15008KT 6000 NSC 30/21 Q1013 NOSIG
VTUW 190200Z 13008KT 7000 NSC 28/22 Q1013 NOSIG
VTUW 190100Z 15005KT 120V180 7000 NSC 25/22 Q1013 NOSIG